x

8454049 - Quonset Point, Ri (qptr1) Weather Station

5:12 - Fri 23rd Jun 2017 All times are EDT. -4 hours from GMT.

  • Wind
    25mph, 29mph gusts
  • Sea Temp 71°f
  • Ar Temp 73°f
  • Sea Pressure 1005mb
  • 8454049 - Quonset Point, Ri
  • 8454049 - Quonset Point, Ri

More Historic Weather Station data

Upgrade to MSW Pro to gain access to the past 30 days of data for over 8000 Wavebouys and Weather Stations around the globe.

Join Pro

Comparision Forecast

View Surf forecast
   
Sex 06/23 5:12 25 29 mph 1005mb 71f 73f
5:06 21 26 mph 1005.2mb 71f 73f
5:00 23 29 mph 1005.2mb 71f 74f
4:54 23 32 mph 1005.2mb 70f 75f
4:48 22 28 mph - - -
4:42 21 25 mph 1005.3mb 70f 76f
4:36 23 28 mph 1005.4mb 70f 76f
4:30 25 32 mph 1005.4mb 70f 76f
4:24 23 30 mph 1005.5mb 70f 76f
4:18 22 26 mph - - -
4:12 17 20 mph 1005.7mb 70f 76f
4:06 11 22 mph 1005.9mb 70f 73f
4:00 20 23 mph 1005.8mb 70f 76f
3:54 18 22 mph 1005.9mb 70f 71f
3:48 17 21 mph - - -
3:42 18 22 mph 1006.2mb 70f 70f
3:36 20 22 mph 1006.1mb 70f 70f
3:30 20 22 mph 1006.2mb 70f 70f
3:24 17 21 mph 1006.2mb 70f 70f
3:18 17 22 mph 1006.3mb 70f 71f
3:12 20 22 mph 1006.4mb 70f 71f
3:06 20 22 mph 1006.5mb 70f 71f
3:00 18 22 mph 1006.5mb 70f 71f
2:54 20 22 mph 1006.6mb 70f 71f
2:48 20 23 mph 1006.7mb 70f 71f
2:42 21 24 mph 1006.8mb 70f 71f
2:36 21 22 mph 1006.8mb 70f 72f
2:30 16 20 mph 1006.8mb 70f 74f
2:24 20 26 mph 1006.9mb 70f 71f
2:18 20 23 mph - - -
2:12 15 18 mph 1007mb 70f 72f
2:06 15 17 mph 1007.1mb 70f 75f
2:00 17 21 mph 1007.3mb 70f 76f
1:54 18 22 mph 1007.3mb 70f 75f
1:48 17 21 mph 1007.3mb 70f 75f
1:42 18 22 mph 1007.5mb 70f 73f
1:36 20 22 mph 1007.6mb 70f 71f
1:30 18 21 mph 1007.6mb 70f 71f
1:24 18 21 mph 1007.7mb 70f 71f
1:18 17 18 mph 1007.7mb 70f 71f
1:12 16 20 mph 1007.9mb 70f 71f
1:06 16 18 mph 1008.1mb 70f 72f
1:00 15 20 mph 1008.2mb 70f 75f
12:54 14 16 mph 1008.2mb 70f 75f
12:48 14 21 mph 1008.4mb 70f 73f
12:42 20 22 mph 1008.6mb 69f 71f
12:36 17 18 mph 1008.7mb 69f 71f
12:30 17 20 mph 1008.7mb 69f -
12:24 17 21 mph 1008.6mb 69f 71f
12:18 18 20 mph 1008.5mb 69f 72f
12:12 18 21 mph 1008.5mb 69f 72f
12:06 18 21 mph 1008.6mb 69f 71f
12:00 20 22 mph 1008.7mb 69f 71f
11:54 20 22 mph 1008.7mb 69f 71f
11:48 20 21 mph - - -
11:42 18 21 mph 1008.8mb 69f 71f
11:36 20 21 mph 1008.8mb 69f 71f
11:30 20 22 mph 1008.8mb 69f 71f
11:24 20 22 mph 1008.9mb 68f 71f
11:18 18 21 mph - - -
11:12 20 22 mph 1008.9mb 68f 70f
11:06 20 22 mph 1008.9mb 68f 70f
11:00 18 21 mph 1008.9mb 68f 70f
10:54 17 20 mph 1009mb 67f 71f
10:48 17 20 mph 1009.1mb 67f 71f
10:42 17 20 mph 1009.2mb 67f 71f
10:36 16 21 mph 1009.3mb 68f 71f
10:30 18 21 mph 1009.3mb 68f 71f
10:24 18 20 mph 1009.4mb 68f 71f
10:18 16 18 mph 1009.5mb 68f 70f
10:12 16 18 mph 1009.5mb 68f 70f
10:06 15 17 mph 1009.6mb 68f 71f
10:00 13 15 mph 1009.7mb 68f 71f
9:54 10 13 mph 1009.7mb 68f 71f
9:48 10 13 mph - - -
9:42 10 10 mph 1009.8mb 68f 70f
9:36 9 11 mph 1009.9mb 68f 70f
9:30 8 9 mph 1009.9mb 68f 70f
9:24 8 9 mph 1010mb 68f 71f
9:18 9 9 mph - - -
9:12 9 10 mph 1010.1mb 67f 70f
9:06 9 10 mph 1010.2mb 67f 69f
9:00 9 10 mph 1010.3mb 67f 69f
8:54 10 13 mph 1010.4mb 67f 69f
8:48 13 15 mph - - -
8:42 14 15 mph 1010.5mb 68f 67f
8:36 14 16 mph 1010.5mb 68f 67f
8:30 11 14 mph 1010.4mb 68f 67f
8:24 13 14 mph 1010.4mb 68f 67f
8:18 11 13 mph - - -
8:12 10 13 mph 1010.5mb 68f 66f
8:06 11 15 mph 1010.5mb 68f 66f
8:00 13 16 mph 1010.6mb 68f 66f
7:54 14 16 mph 1010.7mb 68f 66f
7:48 10 14 mph 1010.6mb 68f 66f
7:42 13 14 mph 1010.5mb 69f 66f
7:36 11 13 mph 1010.3mb 69f 66f
7:30 10 11 mph 1010.2mb 69f 66f
7:24 10 13 mph 1010.3mb 69f 66f
7:18 10 13 mph 1010.3mb 69f 66f
7:12 10 13 mph 1010.4mb 69f 66f
7:06 10 11 mph 1010.4mb 69f 66f
7:00 9 10 mph 1010.4mb 69f 66f
6:54 10 11 mph 1010.3mb 69f 66f
6:48 10 10 mph 1010.3mb 69f 66f
6:12 9 9 mph 1010.5mb 69f 66f
6:06 9 10 mph 1010.4mb 69f 66f
6:00 10 11 mph 1010.5mb 69f 66f
5:54 10 10 mph 1010.5mb 69f 66f
5:48 10 10 mph - - -
5:42 10 11 mph 1010.6mb 69f 66f
5:36 8 9 mph 1010.5mb 69f 66f
5:30 9 9 mph 1010.5mb 69f 67f
5:24 8 10 mph 1010.5mb 69f 67f
5:18 9 10 mph - - -
5:12 9 10 mph 1010.4mb 69f 67f
5:06 9 10 mph 1010.5mb 69f 67f
5:00 9 10 mph 1010.5mb 69f 67f
4:54 9 9 mph 1010.4mb 69f 67f
4:48 8 9 mph - - -
4:42 7 8 mph 1010.5mb 69f 67f
4:36 8 10 mph 1010.5mb 69f 67f
4:30 9 9 mph 1010.6mb 69f 67f
4:24 8 9 mph 1010.5mb 69f 67f
4:18 9 10 mph 1010.4mb 69f 67f
4:12 10 10 mph 1010.4mb 69f 67f
4:06 9 10 mph 1010.5mb 69f 67f
4:00 9 10 mph 1010.5mb 69f 67f
3:54 8 9 mph 1010.4mb 69f 67f
3:48 8 9 mph - - -
3:42 9 9 mph 1010.4mb 69f 67f
3:36 8 9 mph 1010.4mb 69f 67f
3:30 9 9 mph 1010.5mb 69f 67f
3:24 9 10 mph 1010.6mb 69f 67f
3:18 9 10 mph 1010.7mb 69f 67f
3:12 9 11 mph 1010.7mb 69f 67f
3:06 10 11 mph 1010.7mb 69f 67f
3:00 10 10 mph 1010.7mb 69f 67f
2:42 10 11 mph 1011.1mb - -
2:36 9 11 mph 1011.2mb - -
2:30 10 11 mph 1011.3mb 69f 67f
2:24 9 10 mph 1011.4mb 69f 67f
2:18 9 10 mph 1011.5mb 69f 67f
2:12 9 9 mph 1011.6mb 69f 67f
2:06 9 9 mph 1011.7mb 69f 67f
2:00 8 9 mph 1011.8mb 69f 67f
1:54 9 9 mph 1011.8mb 69f 67f
1:48 7 9 mph 1012mb 69f 67f
1:42 8 9 mph 1012mb 69f -
1:36 9 10 mph 1012mb 69f -
1:30 10 10 mph 1012.1mb 69f 69f
1:24 8 9 mph 1012.2mb 69f 69f
1:18 8 9 mph 1012.2mb 69f 69f
1:12 8 9 mph 1012.4mb 68f 69f
1:06 7 9 mph 1012.5mb 68f 68f
1:00 8 8 mph 1012.6mb 68f 68f
12:54 8 8 mph 1012.7mb 69f 69f
12:48 7 8 mph - - -
12:42 7 7 mph 1012.7mb 70f 69f
12:36 6 7 mph 1012.8mb 70f 69f
12:30 6 7 mph 1012.9mb 70f 69f
12:24 5 6 mph 1013mb 70f 69f
12:18 6 7 mph - - -
12:12 6 7 mph 1013.3mb 70f 69f
12:06 7 8 mph 1013.4mb 70f 69f
12:00 6 7 mph 1013.5mb 70f 68f
Qui 06/22 11:54 7 7 mph 1013.6mb 70f 68f
11:48 7 7 mph 1013.6mb - -
11:42 6 7 mph 1013.7mb 70f 68f
11:36 6 8 mph 1013.7mb 70f 68f
11:30 7 8 mph 1013.6mb 70f 68f
11:24 7 8 mph 1013.5mb 70f 68f
11:18 7 8 mph - - -
11:12 6 7 mph 1013.5mb 70f 68f
11:06 5 7 mph 1013.5mb 70f 68f
11:00 6 7 mph 1013.5mb 69f 67f
10:54 6 7 mph 1013.5mb 69f 68f
10:48 7 8 mph - - -
10:42 7 8 mph 1013.7mb 67f 69f
10:36 7 8 mph 1013.7mb 67f 69f
10:30 6 7 mph 1013.7mb 67f 68f
10:24 6 7 mph 1013.7mb 67f 68f
10:18 6 7 mph 1013.6mb - -
10:12 5 7 mph 1013.6mb 67f 69f
10:06 6 7 mph 1013.6mb 67f 69f
10:00 6 7 mph 1013.7mb 67f 69f
9:54 6 7 mph 1013.6mb 67f 70f
9:48 7 9 mph 1013.7mb - -
9:42 9 10 mph 1013.7mb 66f 70f
9:36 8 10 mph 1013.7mb 67f 70f
9:30 9 10 mph 1013.7mb 66f 70f
9:24 9 10 mph 1013.7mb 66f 70f
9:18 8 10 mph 1013.8mb - -
9:12 9 11 mph 1013.7mb 67f 70f
9:06 10 11 mph 1013.6mb 67f 70f
9:00 10 14 mph 1013.5mb 67f 71f
8:48 11 15 mph 1013.4mb - -
8:42 13 14 mph 1013.4mb 67f 71f
8:36 11 13 mph 1013.4mb 67f 71f
8:30 13 14 mph 1013.5mb 67f 71f
8:24 11 14 mph 1013.5mb 67f 71f
8:18 10 13 mph - - -
8:12 11 14 mph 1013.5mb 67f 71f
8:06 11 14 mph 1013.3mb 67f 71f
8:00 13 14 mph 1013.4mb 67f 72f
7:48 14 16 mph 1013.3mb - -
7:42 15 16 mph 1013.2mb 67f 72f
7:36 14 16 mph 1013.2mb 67f 72f
7:30 16 18 mph 1013.2mb 67f 72f
7:24 15 20 mph 1013.1mb 67f 73f
7:18 16 18 mph 1013.1mb 67f 73f
7:12 16 20 mph 1013.1mb 67f 73f
7:06 16 20 mph 1013.1mb 67f 73f
7:00 18 21 mph 1013mb 68f 73f
6:54 17 23 mph 1012.9mb 68f 73f
6:48 20 22 mph 1012.9mb - -
6:42 18 22 mph 1013mb 69f 74f
6:36 20 22 mph 1012.9mb 69f 74f
6:30 18 22 mph 1012.8mb 71f 74f
6:24 17 22 mph 1012.8mb 71f 74f
6:18 20 24 mph 1012.7mb - -
6:12 20 25 mph 1012.9mb 72f 74f
6:06 18 23 mph 1013mb 72f 74f
6:00 18 22 mph 1012.8mb 72f 74f
5:54 18 21 mph 1012.8mb 72f 73f
5:48 18 21 mph 1012.8mb - -
5:42 17 22 mph 1012.9mb 72f 74f
5:36 21 22 mph 1012.9mb 72f 74f
5:30 20 23 mph 1012.9mb 72f 74f
5:24 18 22 mph 1012.8mb 72f 74f
5:18 17 21 mph 1012.9mb 72f 75f
5:12 20 23 mph 1012.8mb 72f 76f
5:06 20 24 mph 1012.8mb 72f 76f
5:00 22 24 mph 1012.8mb 72f 76f
4:54 22 24 mph 1012.9mb 72f 76f
4:48 22 25 mph 1012.9mb 72f 76f
4:42 20 24 mph 1012.9mb 72f 76f
4:36 20 22 mph 1013mb 72f 76f
4:30 17 22 mph 1013.2mb 72f 76f
4:24 17 24 mph 1013.1mb 72f 77f
4:18 20 24 mph - - -
4:12 22 24 mph 1013mb 72f 77f
4:06 17 24 mph 1013.1mb 72f 77f
4:00 18 24 mph 1013mb 71f 76f
3:54 22 24 mph 1012.8mb 71f 77f
3:48 20 24 mph 1012.9mb 71f 78f
3:42 20 23 mph 1012.9mb 71f 78f
3:36 21 25 mph 1012.9mb 71f 77f
3:30 20 23 mph 1012.9mb 71f 78f
3:24 18 23 mph 1012.8mb 71f 78f
3:18 20 22 mph 1012.9mb 71f 78f
3:12 15 21 mph 1013mb 71f 78f
3:06 16 17 mph 1013mb 71f 78f
3:00 13 17 mph 1013mb 71f 78f
2:54 15 20 mph 1013mb 71f 80f
2:48 13 15 mph - - -
2:42 11 15 mph 1013.1mb 72f 80f
2:36 10 13 mph 1013.3mb 72f 76f
2:30 7 14 mph 1013.4mb 72f 78f
2:24 13 15 mph 1013.5mb 72f 74f
2:18 13 15 mph 1013.5mb 72f 75f
2:12 15 17 mph 1013.5mb 71f 74f
2:06 13 22 mph 1013.7mb 71f 75f
2:00 17 18 mph 1013.8mb 71f 74f
1:54 10 17 mph 1013.8mb 71f 74f
1:48 14 18 mph 1013.9mb 70f 74f
1:42 11 20 mph 1014mb 70f 74f
1:36 17 21 mph 1014mb 70f 74f
1:30 15 17 mph 1014mb 70f 73f
1:24 13 15 mph 1014.1mb 70f 73f
1:18 15 18 mph 1014.3mb 70f 73f
1:12 14 16 mph 1014.3mb 70f 72f
1:06 14 15 mph 1014.3mb 70f 73f
1:00 10 14 mph 1014.3mb 69f 74f
12:54 11 14 mph 1014.4mb 69f 73f
12:48 13 14 mph - - -
12:42 7 14 mph 1014.5mb 69f 73f
12:36 10 14 mph 1014.5mb 69f 72f
12:30 10 13 mph 1014.5mb 69f 74f
12:24 10 16 mph 1014.6mb 69f 73f
12:18 13 18 mph - - -
12:12 14 17 mph 1014.7mb 69f 72f
12:06 13 16 mph 1014.8mb 69f 72f
12:00 10 13 mph 1014.8mb 69f 72f
11:54 11 14 mph 1014.9mb 69f 72f
11:48 9 10 mph - - -
11:42 6 9 mph 1014.9mb 68f 72f
11:36 8 9 mph 1015mb 68f 72f
11:30 8 9 mph 1014.9mb 68f 71f
11:24 8 10 mph 1014.8mb 68f 71f
11:18 9 10 mph 1014.7mb 68f 71f
11:12 9 10 mph 1014.7mb 67f 71f
11:06 9 10 mph 1014.7mb 67f 71f
11:00 9 10 mph 1014.8mb 67f 70f
10:54 9 10 mph 1015mb 67f 70f
10:48 8 9 mph - - -
10:42 8 8 mph 1015.1mb 67f 70f
10:36 7 7 mph 1015.2mb 66f 71f
10:30 6 7 mph 1015.3mb 66f 72f
10:24 6 6 mph 1015.5mb 66f 71f
10:18 6 6 mph - - -
10:12 6 7 mph 1015.6mb 66f 71f
10:06 6 7 mph 1015.7mb 66f 70f
10:00 6 9 mph 1015.8mb 66f 70f
9:54 7 9 mph 1015.8mb 66f 69f
9:48 6 7 mph - - -
9:42 7 7 mph 1015.9mb 66f 69f
9:36 6 7 mph 1016mb 66f 69f
9:30 6 6 mph 1016.1mb 66f 69f
9:24 6 6 mph 1016.2mb 66f 69f
9:18 5 5 mph 1016.2mb 66f 70f
9:12 3 5 mph 1016.3mb 66f 70f
9:06 5 6 mph 1016.3mb 66f 69f
9:00 6 8 mph 1016.3mb 66f 69f
8:54 3 5 mph 1016.3mb 66f 70f
8:48 5 6 mph 1016.2mb 66f 69f
8:42 5 6 mph 1016.1mb 66f 69f
8:36 6 7 mph 1016.2mb 66f 70f
8:30 5 7 mph 1016.2mb 66f 70f
8:24 6 7 mph 1016.2mb 67f 70f
8:18 3 6 mph 1016.2mb 67f 70f
8:12 3 5 mph 1016.2mb 67f 69f
8:06 1 7 mph 1016.2mb 67f 70f
8:00 5 7 mph 1016.2mb 67f 70f
7:54 6 7 mph 1016mb 67f 69f
7:48 6 9 mph 1015.9mb 67f 69f
7:42 6 9 mph 1016mb 67f 69f
7:36 8 9 mph 1015.8mb 67f 69f
7:30 7 8 mph 1015.8mb 67f 69f
7:24 6 8 mph 1015.8mb 67f 68f
7:18 6 7 mph 1015.8mb 67f 68f
7:12 5 7 mph 1015.8mb 67f 68f
7:06 2 3 mph 1015.8mb 67f 69f
7:00 1 2 mph 1015.9mb 67f 70f
6:54  -  2 mph 1015.8mb 67f 69f
6:48  -  2 mph - - -
6:42 2 6 mph 1015.7mb 68f 67f
6:36 7 8 mph 1015.4mb 68f 66f
6:30 6 8 mph 1015.3mb 68f 66f
6:24 6 11 mph 1015.1mb 68f 67f
6:18 9 11 mph 1015mb 68f 67f
6:12 8 11 mph 1015mb 68f 67f
6:06 10 13 mph 1015mb 68f 66f
6:00 10 13 mph 1015mb 68f -
5:54 8 13 mph 1015mb 68f 66f
5:48 9 14 mph - - -
5:42 8 13 mph 1015mb 68f 64f
5:36 8 13 mph 1014.9mb 69f 65f
5:30 8 11 mph 1014.9mb 69f 64f
5:24 8 11 mph 1014.8mb 69f 65f
5:18 9 13 mph 1014.7mb 69f 64f
5:12 8 13 mph 1014.7mb 69f 65f
5:06 8 11 mph 1014.7mb 69f 64f
5:00 6 9 mph 1014.6mb 69f 64f
4:54 8 10 mph 1014.6mb 69f 64f
4:48 8 10 mph - - -
4:42 6 9 mph 1014.5mb 69f 64f
4:36 7 10 mph 1014.4mb 69f 64f
4:30 6 9 mph 1014.4mb 69f 64f
4:24 7 10 mph 1014.3mb 69f 64f
4:18 7 10 mph 1014.3mb 69f 64f
4:12 8 14 mph 1014.3mb 69f 65f
4:06 7 10 mph 1014.3mb 69f 65f
4:00 8 10 mph 1014.3mb 69f 65f
3:54 7 9 mph 1014.3mb 69f 65f
3:48 6 9 mph 1014.2mb 68f 65f
3:42 8 10 mph 1014.2mb 68f 65f
3:36 3 6 mph 1014.2mb 68f 64f
3:30 3 5 mph 1014.2mb 68f 65f
3:24 2 7 mph 1014.1mb 69f 65f
3:18 3 8 mph 1014.1mb 69f 66f
3:12 6 7 mph 1014mb 69f 66f
3:06 5 7 mph 1013.9mb 69f 66f
3:00 6 7 mph 1013.9mb 68f 66f
2:54 5 7 mph 1013.8mb 68f 67f
2:48 5 6 mph 1013.8mb 68f 67f
2:42 3 6 mph 1013.8mb - -
2:36 5 6 mph 1013.8mb - -
2:30 5 5 mph 1013.8mb 67f 66f
2:24 3 5 mph 1013.9mb 67f 66f
2:18 5 5 mph 1013.9mb 67f 66f
2:12 3 5 mph 1014mb 67f 67f
2:06 3 3 mph 1013.9mb 67f 66f
2:00 3 3 mph 1013.9mb 67f 66f
1:54 2 3 mph 1013.9mb 67f 66f
1:48 2 3 mph 1013.9mb 67f 66f
1:42 2 3 mph 1013.9mb 67f -
1:36 2 3 mph 1013.9mb 67f -
1:30 1 2 mph 1013.9mb 67f 66f
1:24 2 3 mph 1013.9mb 67f 65f
1:18 3 3 mph - - -
1:12 3 5 mph 1013.9mb 67f 65f
1:06 3 5 mph 1013.9mb 67f 66f
1:00 3 5 mph 1013.7mb 67f 66f
12:54 2 5 mph 1013.8mb 67f 65f
12:48 3 5 mph 1013.8mb 67f 65f
12:42 3 5 mph 1013.8mb 67f 65f
12:36 5 6 mph 1013.9mb 67f 66f
12:30 5 5 mph 1013.8mb 67f 66f
12:24 3 5 mph 1013.7mb 67f 67f
12:18 2 3 mph 1013.7mb 67f 67f
12:12  -  2 mph 1013.7mb 67f 67f
12:06  -  1 mph 1013.6mb 67f 67f
12:00 1 2 mph 1013.5mb 67f 67f
Qua 06/21 11:54 2 3 mph 1013.5mb 67f 67f
11:48 3 5 mph 1013.4mb - -
11:42 2 5 mph 1013.4mb 67f 67f
11:36 2 5 mph 1013.3mb 67f 68f
11:30 2 6 mph 1013.2mb 67f 67f
11:24 6 7 mph 1013.2mb 66f 66f
11:18 7 8 mph 1013.2mb 67f 66f
11:12 5 6 mph 1013.2mb 67f 68f
11:06 3 7 mph 1013.1mb 67f 71f
11:00 5 7 mph 1013mb 67f 71f
10:54 7 10 mph 1012.9mb 67f 71f
10:48 7 9 mph - - -
10:42 7 9 mph 1012.9mb 67f 70f
10:36 6 7 mph 1012.9mb 67f 70f
10:30 5 7 mph 1012.9mb 67f 70f
10:24 6 7 mph 1012.9mb 67f 69f
10:18 7 8 mph 1012.9mb - -
10:12 7 8 mph 1012.9mb 67f 67f
10:06 6 6 mph 1012.9mb 67f 67f
10:00 6 7 mph 1012.8mb 67f 67f
9:54 6 7 mph 1012.8mb 67f 68f
9:48 6 8 mph 1012.7mb - -
9:42 7 8 mph 1012.6mb 66f 68f
9:36 6 9 mph 1012.5mb 65f 68f
9:30 7 9 mph 1012.4mb 65f 68f
9:24 6 8 mph 1012.4mb 65f 67f
9:18 7 9 mph 1012.4mb - -
9:12 8 9 mph 1012.3mb 65f 66f
9:06 8 9 mph 1012.2mb 65f 66f
9:00 8 10 mph 1012.1mb 65f 66f
8:54 8 9 mph 1011.9mb 65f 66f
8:48 7 8 mph 1011.9mb - -
8:42 6 7 mph 1011.9mb 66f 67f
8:36 7 8 mph 1011.9mb 66f 67f
8:30 7 9 mph 1011.9mb 66f 67f
8:24 8 9 mph 1011.8mb 66f 67f
8:18 9 9 mph 1011.8mb - -
8:12 7 8 mph 1011.8mb 66f 67f
8:06 8 8 mph 1011.8mb 66f 67f
8:00 8 9 mph 1011.7mb 66f 68f
7:54 9 10 mph 1011.7mb 66f 67f
7:48 9 10 mph 1011.7mb - -
7:42 8 13 mph 1011.7mb 66f 67f
7:36 9 15 mph 1011.7mb 66f 67f
7:30 14 18 mph 1011.6mb 66f 67f
7:24 16 25 mph 1011.5mb 67f 67f
7:18 24 28 mph - - -
7:12 23 28 mph 1011.2mb 67f 68f
7:06 22 30 mph 1011.3mb 67f 71f
7:00 24 30 mph 1011mb 68f 74f
6:54 14 17 mph 1010.7mb 68f 75f
6:48 16 20 mph 1010.8mb - -
6:42 16 18 mph 1010.7mb 68f 75f
6:36 16 17 mph 1010.6mb 67f 75f
6:30 15 20 mph 1010.4mb 67f 75f
6:24 17 21 mph 1010.4mb 67f 75f
6:18 18 22 mph 1010.3mb - -
6:12 20 22 mph 1010.2mb 68f 76f
6:06 18 23 mph 1010.2mb 68f 76f
6:00 18 22 mph 1010.2mb 68f 77f
5:54 17 22 mph 1010.3mb 68f 76f
5:48 17 24 mph 1010.2mb - -
5:42 20 22 mph 1010.2mb 68f 77f
5:36 16 22 mph 1010.2mb 68f 76f
5:30 18 22 mph 1010.2mb 68f 76f
5:24 15 18 mph 1010.2mb 68f 77f
5:18 14 23 mph - - -
5:12 21 24 mph 1010.1mb 68f 78f
5:06 21 24 mph 1010mb 68f 78f
5:00 14 21 mph 1010.1mb 68f 77f
4:54 15 21 mph 1010.1mb 68f 77f
4:48 14 22 mph - - -
4:42 17 24 mph 1010.1mb 68f 77f
4:36 21 24 mph 1010mb 68f 78f
4:30 23 26 mph 1010mb 68f 77f
4:24 21 25 mph 1010mb 68f 78f
4:18 22 26 mph 1010mb 68f 77f
4:12 20 26 mph 1010.1mb 68f 78f
4:06 20 22 mph 1010.1mb 68f 77f
4:00 18 25 mph 1010.2mb 68f 77f
3:54 21 24 mph 1010.1mb 68f 77f
3:48 22 23 mph 1010.1mb 68f 77f
3:42 18 23 mph 1010.2mb 68f 77f
3:36 21 25 mph 1010.2mb 68f 78f
3:30 16 25 mph 1010.2mb 68f 77f
3:24 22 28 mph 1010.2mb 68f 78f
3:18 21 29 mph 1010.2mb 68f 77f
3:12 20 22 mph 1010.3mb 68f 77f
3:06 18 23 mph 1010.3mb 68f 77f
3:00 17 23 mph 1010.4mb 68f 78f
2:54 16 17 mph 1010.4mb 68f 77f
2:48 14 18 mph 1010.5mb 68f 78f
2:42 15 18 mph 1010.4mb 68f 79f
2:36 15 24 mph 1010.6mb 68f 78f
2:30 24 28 mph 1010.5mb 68f 80f
2:24 16 26 mph 1010.6mb 68f 79f
2:18 24 30 mph - - -
2:12 22 25 mph 1010.5mb 68f 80f
2:06 18 23 mph 1010.6mb 68f 80f
2:00 21 24 mph 1010.7mb 68f 79f
1:54 18 29 mph 1010.8mb 68f 79f
1:48 22 30 mph - - -
1:42 16 24 mph - 68f -
1:36 22 26 mph - 68f -
1:30 22 25 mph 1010.9mb 67f 79f
1:24 20 22 mph 1011mb 67f 79f
1:18 18 23 mph 1011.1mb 67f 79f
1:12 17 22 mph 1011.2mb 67f 79f
1:06 18 24 mph 1011.1mb 67f 79f
1:00 15 21 mph 1011.2mb 67f 78f
12:54 18 25 mph 1011.3mb 67f 79f
12:48 15 20 mph - - -
12:42 17 25 mph 1011.4mb 67f 79f
12:36 20 29 mph 1011.5mb 67f 80f
12:30 16 22 mph 1011.6mb 67f 78f
12:24 16 21 mph 1011.5mb 67f 80f
12:18 17 23 mph 1011.5mb 67f 80f
12:12 18 24 mph 1011.6mb 67f 80f
12:06 16 21 mph 1011.7mb 67f 80f
12:00 22 28 mph 1011.8mb 67f 79f
11:54 17 23 mph 1011.7mb 67f 79f
11:48 18 23 mph - - -
11:42 18 23 mph 1011.8mb 67f 79f
11:36 14 23 mph 1011.8mb 67f 78f
11:30 16 21 mph 1011.8mb 67f 79f
11:24 16 18 mph 1012mb 67f 79f
11:18 16 18 mph - - -
11:12 15 17 mph 1012mb 67f 78f
11:06 16 20 mph 1012.1mb 67f 77f
11:00 16 18 mph 1012.1mb 67f 78f
10:54 20 22 mph 1012.1mb 67f 77f
10:48 18 23 mph - - -
10:42 17 20 mph 1012.1mb 67f 78f
10:36 10 16 mph 1012.2mb 67f 77f
10:30 13 20 mph 1012.3mb 67f 78f
10:24 14 16 mph 1012.2mb 67f 77f
10:18 13 15 mph 1012.3mb 67f 76f
10:12 10 15 mph 1012.2mb 67f 76f
10:06 13 17 mph 1012.4mb 67f 76f
10:00 14 16 mph 1012.4mb 67f 76f
9:54 10 15 mph 1012.5mb 67f 75f
9:48 11 14 mph - - -
9:42 13 14 mph 1012.4mb 66f 75f
9:36 10 13 mph 1012.5mb 66f 75f
9:30 10 14 mph 1012.5mb 66f 74f
9:24 10 14 mph 1012.6mb 66f 74f
9:18 9 11 mph 1012.7mb 66f 74f
9:12 10 14 mph 1012.8mb 66f 73f
9:06 10 13 mph 1012.9mb 66f 73f
9:00 13 14 mph 1013mb 66f 73f
8:54 9 13 mph 1013.1mb 66f 72f
8:48 9 13 mph 1013.2mb 66f 72f
8:42 10 11 mph 1013.2mb 66f 72f
8:36 10 14 mph 1013.2mb 66f 71f
8:30 10 11 mph 1013.1mb 66f 71f
8:24 11 14 mph 1013.1mb 66f 71f
8:18 13 15 mph - - -
8:12 11 14 mph 1013mb 66f 70f
8:06 11 13 mph 1013mb 66f 70f
8:00 11 14 mph 1013mb 66f 70f
7:54 11 14 mph 1013.1mb 66f 69f
7:48 11 15 mph 1013.1mb 66f 69f
7:42 13 14 mph 1013.1mb 66f 69f
7:36 7 9 mph 1013.2mb 66f 67f
7:30 8 11 mph 1013.2mb 66f 67f
7:24 10 13 mph 1013.2mb 66f 67f
7:18 9 10 mph - - -
7:12 10 11 mph 1013.2mb 66f 66f
7:06 10 14 mph 1013.3mb 66f 66f
7:00 11 13 mph 1013.3mb 66f 66f
6:54 10 14 mph 1013.2mb 66f 65f
6:48 13 15 mph - - -
6:42 11 13 mph 1013.3mb 66f 65f
6:36 9 10 mph 1013.4mb 66f 65f
6:30 7 7 mph 1013.3mb 66f 65f
6:24 7 9 mph 1013.4mb 66f 65f
6:18 8 9 mph 1013.4mb 66f 65f
6:12 7 8 mph 1013.3mb 66f 65f
6:06 8 9 mph 1013.3mb 66f 65f
6:00 7 8 mph 1013.2mb 66f 65f
5:54 7 8 mph 1013.2mb 66f 65f
5:48 7 8 mph - - -
5:42 8 10 mph 1013.3mb 66f 65f
5:36 8 10 mph 1013.3mb 66f 65f
5:30 7 7 mph 1013.3mb 66f 65f
5:24 7 8 mph 1013.2mb 66f 65f
5:18 7 9 mph - - -
5:12 8 9 mph 1013.2mb 66f 65f
5:06 8 10 mph 1013.2mb 66f 65f
5:00 9 10 mph 1013.1mb 66f 65f
4:54 9 10 mph 1013.1mb 66f 65f
4:48 8 10 mph - - -
4:42 7 10 mph 1013mb 66f 65f
4:36 7 9 mph 1013.1mb 66f 65f
4:30 7 9 mph 1013mb 66f 65f
4:24 9 10 mph 1013mb 66f 65f
4:18 7 8 mph 1013mb 66f 65f
4:12 7 8 mph 1013mb 66f 65f
4:06 6 7 mph 1012.9mb 66f 65f
4:00 6 7 mph 1012.8mb 66f 65f
3:54 7 8 mph 1012.9mb 66f 65f
3:48 7 8 mph - - -
3:42 8 9 mph 1013.1mb 66f 65f
3:36 7 9 mph 1013.2mb 66f 65f
3:30 8 9 mph 1013.2mb 66f 65f
3:24 7 8 mph 1013.3mb 66f 65f
3:18 7 8 mph 1013.4mb 66f 66f
3:12 5 6 mph 1013.5mb 66f 65f
3:06 6 6 mph 1013.5mb 66f 65f
3:00 6 6 mph 1013.4mb 66f 65f
2:54 5 5 mph 1013.4mb 66f 65f
2:48 5 7 mph - - -
2:42 7 9 mph 1013.5mb 66f 66f
2:36 7 10 mph 1013.6mb 66f 66f
2:30 8 9 mph 1013.6mb 66f 66f
2:24 8 9 mph 1013.5mb 66f 66f
2:18 8 9 mph 1013.5mb 66f 66f
2:12 5 6 mph 1013.5mb 66f 66f
2:06 6 6 mph 1013.5mb 66f 66f
2:00 7 8 mph 1013.6mb 66f -
1:54 7 9 mph 1013.6mb 66f 66f
1:48 8 9 mph - - -
1:42 6 7 mph 1013.6mb 66f 66f
1:36 6 7 mph 1013.7mb 66f 66f
1:30 6 7 mph 1013.7mb 66f 66f
1:24 7 7 mph 1013.7mb 66f 66f
1:18 7 8 mph - - -
1:12 9 11 mph 1013.8mb 66f 66f
1:06 9 11 mph 1013.8mb 66f 67f
1:00 9 11 mph 1013.8mb 66f 67f
12:54 10 13 mph 1013.8mb 66f 66f
12:48 10 11 mph 1013.9mb 66f 67f
12:42 10 11 mph 1013.9mb 66f 67f
12:36 9 11 mph 1014mb 66f 66f
12:30 9 10 mph 1014mb 66f 66f
12:24 9 10 mph 1014mb 66f 66f
12:18 10 11 mph 1014mb 66f 67f
12:12 10 10 mph 1014.1mb 66f 67f
12:06 9 10 mph 1014.1mb 66f 67f
12:00 9 10 mph 1014mb 66f 67f
Ter 06/20 11:54 8 9 mph 1014.1mb 66f 67f
11:48 9 11 mph 1014.2mb - -
11:42 9 10 mph 1014.1mb 66f 68f
11:36 9 11 mph 1014.1mb 66f 68f
11:30 9 11 mph 1014.1mb 66f 68f
11:24 10 11 mph 1014.1mb 66f 68f
11:18 10 11 mph 1014.1mb 66f 68f
11:12 10 14 mph 1014.1mb 66f 68f
11:06 11 13 mph 1014.1mb 66f 68f
11:00 11 13 mph 1014.1mb 67f 69f
10:54 11 14 mph 1013.9mb 67f 69f
10:48 13 14 mph - - -
10:42 13 15 mph 1013.8mb 67f 69f
10:36 11 14 mph 1013.9mb 67f 70f
10:30 11 14 mph 1013.9mb 67f 70f
10:24 11 11 mph 1014.1mb 67f 70f
10:18 10 13 mph 1014.1mb - -
10:12 11 14 mph 1014.1mb 67f 70f
10:06 14 15 mph 1014mb 67f 70f
10:00 13 14 mph 1013.9mb 67f 70f
9:54 13 15 mph 1013.9mb 67f 70f
9:48 11 14 mph 1013.8mb - -
9:42 11 14 mph 1013.8mb 67f 71f
9:36 13 14 mph 1013.8mb 67f 71f
9:30 13 17 mph 1013.8mb 67f 71f
9:24 15 17 mph 1013.7mb 67f 71f
9:18 16 18 mph - - -
9:12 15 16 mph 1013.5mb 67f 72f
9:06 14 17 mph 1013.5mb 67f 72f
9:00 14 16 mph 1013.4mb 67f 72f
8:54 14 15 mph 1013.4mb 67f 72f
8:48 14 16 mph - - -
8:42 14 15 mph 1013.2mb 67f 72f
8:36 14 15 mph 1013.1mb 67f 72f
8:30 13 14 mph 1013.2mb 67f 73f
8:24 11 15 mph 1013.1mb 66f 73f
8:18 13 15 mph 1013mb - -
8:12 14 16 mph 1013mb 66f 73f
8:06 14 18 mph 1013mb 65f 73f
8:00 15 20 mph 1012.9mb 65f 73f
7:54 17 20 mph 1012.8mb 65f 74f
7:48 15 20 mph 1012.8mb - -
7:42 16 23 mph 1012.7mb 65f 74f
7:36 17 23 mph 1012.6mb 65f 74f
7:30 16 21 mph 1012.6mb 65f 74f
7:24 21 25 mph 1012.5mb 65f 75f
7:00 22 24 mph 1012.3mb 65f 76f
6:54 23 29 mph 1012.2mb 65f 75f
6:48 21 28 mph 1012.1mb - -
6:42 22 29 mph 1012.1mb 65f 76f
6:36 22 28 mph 1012mb 65f 76f
6:30 21 25 mph 1012mb 65f 76f
6:24 22 30 mph 1011.8mb 66f 76f
6:18 23 29 mph - - -
6:12 23 31 mph 1011.8mb 67f 77f
6:06 21 28 mph 1011.7mb 67f 76f
6:00 22 31 mph 1011.7mb 67f 77f
5:54 25 29 mph 1011.6mb 67f 78f
5:48 24 29 mph 1011.6mb - -
5:42 21 28 mph 1011.7mb 67f 76f
5:36 20 30 mph 1011.7mb 67f 76f
5:30 24 30 mph 1011.7mb 67f 77f
5:24 22 29 mph 1011.6mb 67f 76f
5:18 21 29 mph - - -
5:12 23 26 mph 1011.7mb 67f 77f
5:06 23 33 mph 1011.7mb 67f 77f
5:00 24 29 mph 1011.7mb 67f 77f
4:54 22 26 mph 1011.6mb 67f 77f
4:48 17 29 mph - - -
4:42 22 29 mph 1011.5mb 67f 77f
4:36 24 28 mph 1011.5mb 68f 76f
4:30 24 29 mph 1011.4mb 68f 77f
4:24 21 28 mph 1011.6mb 68f 77f
4:18 21 29 mph 1011.5mb 68f 76f
4:12 23 25 mph 1011.4mb 68f 76f
4:06 22 26 mph 1011.4mb 69f 76f
4:00 18 28 mph 1011.4mb 69f 76f
3:54 21 25 mph 1011.4mb 68f 76f
3:48 24 30 mph - - -
3:42 22 26 mph 1011.3mb 68f 76f
3:36 22 28 mph 1011.3mb 68f 77f
3:30 23 31 mph 1011.3mb 68f 76f
3:24 21 26 mph 1011.4mb 68f 76f
3:18 20 29 mph 1011.4mb 68f 76f
3:12 22 25 mph 1011.3mb 68f 75f
3:06 20 28 mph 1011.4mb 68f 75f
3:00 22 26 mph 1011.3mb 68f 75f
2:54 22 23 mph 1011.2mb 67f 75f
2:48 20 25 mph - - -
2:42 20 24 mph 1011.3mb 67f 75f
2:36 18 25 mph 1011.3mb 67f 75f
2:30 23 26 mph 1011.3mb 67f 76f
2:24 17 28 mph 1011.3mb 67f 75f
2:18 25 29 mph 1011.4mb 67f 76f
2:12 23 31 mph 1011.4mb 67f 75f
2:06 24 30 mph 1011.4mb 67f 75f
2:00 20 26 mph 1011.4mb 67f 75f
1:54 20 26 mph 1011.4mb 67f 76f
1:48 22 25 mph - - -
1:42 22 24 mph 1011.4mb 67f 76f
1:36 20 23 mph 1011.5mb 67f 76f
1:30 17 24 mph 1011.5mb 67f 75f
1:24 22 25 mph 1011.4mb 67f 76f
1:18 18 24 mph - - -
1:12 20 23 mph 1011.4mb 67f 75f
1:06 17 23 mph 1011.6mb 67f 75f
1:00 17 21 mph 1011.6mb 67f 74f
12:54 17 23 mph 1011.8mb 67f 74f
12:48 18 20 mph 1011.8mb 67f 74f
12:42 16 23 mph 1011.8mb 67f 73f
12:36 20 22 mph 1011.8mb 67f 74f
12:30 14 21 mph 1011.9mb 67f 68f
12:24 18 22 mph 1012mb 66f 68f
12:18 20 22 mph - - -
12:12 18 23 mph 1012mb 66f 67f
12:06 16 22 mph 1011.9mb 66f 68f
12:00 16 20 mph 1011.9mb 66f 68f
11:54 14 17 mph 1012mb 66f 70f
11:48 17 21 mph 1012mb 66f 72f
11:42 15 17 mph 1012mb 66f 73f
11:36 15 20 mph 1012mb 66f 73f
11:30 15 17 mph 1012mb 66f 73f
11:24 14 17 mph 1012mb 66f 72f
11:18 15 20 mph - - -
11:12 15 18 mph 1012mb 66f 72f
11:06 13 14 mph 1012.1mb 66f 72f
11:00 14 16 mph 1012mb 66f 72f
10:54 15 16 mph 1012mb 66f 72f
10:48 14 16 mph - - -
10:42 15 17 mph 1012mb 66f 72f
10:36 17 20 mph 1012mb 66f 71f
10:30 16 18 mph 1011.9mb 66f 71f
10:24 14 16 mph 1011.8mb 66f 71f
10:18 10 13 mph - - -
10:12 10 11 mph 1011.6mb 66f 71f
10:06 10 11 mph 1011.7mb 66f 70f
10:00 11 15 mph 1011.9mb 66f 70f
9:54 13 17 mph 1012mb 66f 70f
9:48 13 18 mph - - -
9:42 11 17 mph 1012mb 65f 69f
9:36 11 14 mph 1011.9mb 65f 69f
9:30 8 11 mph 1011.9mb 65f 69f
9:24 10 11 mph 1011.8mb 65f 69f
9:18 10 11 mph 1011.7mb 65f 69f
9:12 10 11 mph 1011.8mb 65f 69f
9:06 10 13 mph 1011.8mb 65f 68f
9:00 9 11 mph 1011.9mb 65f 68f
8:54 9 14 mph 1011.9mb 65f 68f
8:48 13 14 mph - - -
8:42 10 15 mph 1012mb 65f 68f
8:36 13 16 mph 1012mb 65f 68f
8:30 9 14 mph 1012.1mb 65f 67f
8:24 9 13 mph 1012mb 65f 67f
8:18 8 10 mph 1011.8mb 65f 67f
8:12 8 10 mph 1011.8mb 65f 67f
8:06 9 11 mph 1011.8mb 65f 67f
8:00 10 11 mph 1011.7mb 65f 67f
7:54 10 13 mph 1011.7mb 65f 67f
7:48 10 11 mph - - -
7:42 10 11 mph 1011.5mb 65f 67f
7:36 9 14 mph 1011.6mb 65f 67f
7:30 11 13 mph 1011.7mb 65f 67f
7:24 10 13 mph 1011.6mb 65f 67f
7:18 11 14 mph - - -
7:12 13 15 mph 1011.5mb 64f 67f
7:06 13 14 mph 1011.3mb 64f 67f
7:00 11 14 mph 1011.2mb 64f 67f
6:54 10 14 mph 1011mb 64f 67f
6:48 11 15 mph - - -
6:42 13 18 mph 1011.3mb 64f 67f
6:36 15 18 mph 1011.4mb 64f 67f
6:30 16 21 mph 1011.5mb 64f 67f
6:24 15 18 mph 1011.4mb 64f 67f
6:18 16 20 mph 1011.2mb 64f 67f
6:12 16 21 mph 1011.1mb 64f 67f
6:06 14 17 mph 1011.3mb 65f 67f
6:00 15 17 mph 1011.3mb 65f 67f
5:54 15 18 mph 1011.2mb 65f 67f
5:48 14 18 mph - - -
5:42 17 21 mph 1011mb 65f 68f
5:36 18 21 mph 1010.9mb 65f 68f
5:30 18 21 mph 1010.8mb 65f 69f
5:24 13 17 mph 1010.8mb 65f 68f
5:18 15 18 mph 1010.8mb 65f 69f
5:12 17 21 mph 1010.7mb 65f 69f
5:06 15 18 mph 1010.8mb 65f 69f
5:00 18 21 mph 1010.7mb 65f 68f
4:54 15 18 mph 1010.8mb 65f 68f
4:48 14 18 mph 1010.8mb 65f 68f
4:42 16 20 mph 1010.8mb 65f 68f
4:36 16 20 mph 1010.8mb 65f 68f
4:30 15 17 mph 1010.8mb 65f 68f
4:24 15 17 mph 1010.9mb 65f 68f
4:18 15 20 mph - - -
4:12 15 18 mph 1010.7mb 65f 68f
4:06 16 21 mph 1010.7mb 65f 68f
4:00 16 22 mph 1010.9mb 65f 68f
3:54 17 23 mph 1010.9mb 65f 68f
3:48 18 22 mph - - -
3:42 21 25 mph 1011mb 65f 69f
3:36 17 22 mph 1011.1mb 65f 69f
3:30 21 26 mph 1011.2mb 65f 69f
3:24 22 25 mph 1011.2mb 65f 69f
3:18 21 28 mph 1011.3mb 65f 69f
3:12 20 26 mph 1011.3mb 65f 69f
3:06 22 26 mph 1011.2mb 65f 69f
3:00 20 25 mph 1011.1mb 65f 69f
2:54 20 26 mph 1011.3mb 65f 69f
2:48 22 26 mph 1011.4mb 65f 68f
2:42 20 24 mph 1011.5mb - -
2:36 18 24 mph 1011.5mb - -
2:30 16 21 mph 1011.4mb 65f 68f
2:24 16 22 mph 1011.5mb 65f 68f
2:18 16 20 mph - - -
2:12 16 21 mph 1011.4mb 65f 68f
2:06 16 20 mph 1011.4mb 66f 68f
2:00 17 23 mph 1011.5mb 66f 68f
1:54 16 21 mph 1011.6mb 66f 68f
1:48 17 21 mph - - -
1:42 16 21 mph 1011.9mb 66f 68f
1:36 17 20 mph 1011.9mb 66f 68f
1:30 16 21 mph 1011.9mb 66f 68f
1:24 16 20 mph 1011.9mb 65f 68f
1:18 15 17 mph - - -
1:12 14 18 mph 1011.6mb 66f 68f
1:06 15 20 mph 1011.6mb 66f 68f
1:00 16 21 mph 1011.6mb 65f 69f
12:54 16 21 mph 1011.6mb 65f 68f
12:48 17 22 mph - - -
12:42 17 21 mph 1012mb 65f 68f
12:36 15 17 mph 1011.8mb 65f 68f
12:30 15 17 mph 1011.6mb 65f 68f
12:24 13 17 mph 1011.6mb 65f 68f
12:18 14 16 mph 1012mb 65f 68f
12:12 15 18 mph 1012.1mb 65f 68f
12:06 14 18 mph 1012.1mb 65f 67f
12:00 14 20 mph 1012.1mb 65f 67f
Seg 06/19 11:54 15 18 mph 1012mb 65f 67f
11:48 16 21 mph 1012.3mb - -
11:42 18 22 mph 1012.4mb 65f 67f
11:36 18 22 mph 1012.4mb 65f 67f
11:30 18 23 mph 1012.5mb 65f 67f
11:24 20 23 mph 1012.6mb 65f 67f
11:18 20 23 mph 1012.6mb 65f 67f
11:12 21 25 mph 1012.6mb 65f 67f
11:06 18 23 mph 1012.7mb 65f 67f
11:00 18 24 mph 1012.5mb 65f 67f
10:54 20 23 mph 1012.4mb 65f 67f
10:48 18 21 mph - - -
10:42 20 23 mph 1012.6mb 65f 67f
10:36 16 20 mph 1012.2mb 65f 67f